Time;durP1;ratioP1;P1;durP2;ratioP2;P2;SDS_P1;SDS_P2;PMS_P1;PMS_P2;Temp;Humidity;BMP_temperature;BMP_pressure;BME280_temperature;BME280_humidity;BME280_pressure;Samples;Min_cycle;Max_cycle;Signal;HPM_P1;HPM_P2
2023/10/27 00:01:44;;;;;;;17.17;12.68;;;;;;;;;;4979399;28;20064;-64
2023/10/27 00:04:10;;;;;;;18.50;12.07;;;;;;;;;;4980671;28;20026;-64
2023/10/27 00:06:36;;;;;;;15.95;11.68;;;;;;;;;;4981477;28;20030;-65
2023/10/27 00:09:03;;;;;;;20.67;13.55;;;;;;;;;;4980432;28;20038;-64
2023/10/27 00:11:29;;;;;;;17.55;12.23;;;;;;;;;;4979528;28;20046;-65
2023/10/27 00:13:55;;;;;;;17.85;12.85;;;;;;;;;;4977942;28;20037;-64
2023/10/27 00:16:22;;;;;;;17.60;12.68;;;;;;;;;;4979234;28;20046;-64
2023/10/27 00:18:48;;;;;;;20.77;13.45;;;;;;;;;;4979500;28;20051;-64
2023/10/27 00:21:14;;;;;;;19.65;13.02;;;;;;;;;;4980653;28;20599;-64
2023/10/27 00:23:40;;;;;;;20.23;13.55;;;;;;;;;;4980610;28;20823;-65
2023/10/27 00:26:06;;;;;;;19.52;13.40;;;;;;;;;;4980804;28;20125;-64
2023/10/27 00:28:32;;;;;;;17.67;13.40;;;;;;;;;;4978274;28;20025;-64
2023/10/27 00:31:01;;;;;;;19.27;13.05;;;;;;;;;;4979352;28;20350;-65
2023/10/27 00:33:27;;;;;;;18.67;13.65;;;;;;;;;;4994023;28;20034;-65
2023/10/27 00:35:54;;;;;;;19.00;12.90;;;;;;;;;;4979720;28;20053;-64
2023/10/27 00:38:20;;;;;;;18.13;12.95;;;;;;;;;;4977842;28;20042;-64
2023/10/27 00:40:46;;;;;;;19.15;13.15;;;;;;;;;;4980832;28;20025;-64
2023/10/27 00:43:16;;;;;;;17.42;13.90;;;;;;;;;;4978880;28;21859;-64
2023/10/27 00:45:52;;;;;;;16.65;12.25;;;;;;;;;;4979752;28;20045;-65
2023/10/27 00:48:20;;;;;;;16.27;12.57;;;;;;;;;;4980664;28;20034;-65
2023/10/27 00:50:46;;;;;;;17.52;12.32;;;;;;;;;;4977683;28;20022;-64
2023/10/27 00:53:14;;;;;;;18.48;12.25;;;;;;;;;;4980366;28;20066;-65
2023/10/27 00:55:41;;;;;;;15.73;12.10;;;;;;;;;;4976994;28;20959;-65
2023/10/27 00:58:16;;;;;;;18.02;12.95;;;;;;;;;;4978930;28;20058;-64
2023/10/27 01:00:43;;;;;;;17.92;12.60;;;;;;;;;;4978772;28;20030;-64
2023/10/27 01:03:11;;;;;;;17.85;12.63;;;;;;;;;;4980885;28;20029;-65
2023/10/27 01:05:37;;;;;;;16.40;11.50;;;;;;;;;;4980659;28;20145;-65
2023/10/27 01:08:03;;;;;;;16.75;11.68;;;;;;;;;;4979829;28;21822;-64
2023/10/27 01:10:30;;;;;;;18.88;11.10;;;;;;;;;;4979943;28;20034;-65
2023/10/27 01:12:57;;;;;;;15.35;11.32;;;;;;;;;;4980043;28;20026;-65
2023/10/27 01:15:23;;;;;;;16.75;12.73;;;;;;;;;;4979798;28;20072;-65
2023/10/27 01:17:49;;;;;;;17.15;12.18;;;;;;;;;;4979298;28;20988;-65
2023/10/27 01:20:15;;;;;;;16.83;12.80;;;;;;;;;;4977831;28;20485;-65
2023/10/27 01:22:47;;;;;;;17.17;11.55;;;;;;;;;;4979430;28;20034;-65
2023/10/27 01:25:17;;;;;;;16.50;11.20;;;;;;;;;;4978098;28;20033;-65
2023/10/27 01:27:43;;;;;;;15.63;11.13;;;;;;;;;;4978654;28;20038;-64
2023/10/27 01:30:09;;;;;;;15.88;11.55;;;;;;;;;;4978968;28;20035;-65
2023/10/27 01:32:36;;;;;;;15.40;11.32;;;;;;;;;;4977577;28;20734;-65
2023/10/27 01:35:02;;;;;;;15.48;11.70;;;;;;;;;;4977332;28;20030;-64
2023/10/27 01:37:28;;;;;;;13.75;10.80;;;;;;;;;;4977192;28;20044;-64
2023/10/27 01:39:56;;;;;;;15.38;11.73;;;;;;;;;;4977555;28;20519;-65
2023/10/27 01:42:22;;;;;;;15.15;11.38;;;;;;;;;;4977301;28;20038;-65
2023/10/27 01:44:48;;;;;;;18.02;12.13;;;;;;;;;;4976142;28;20474;-64
2023/10/27 01:47:15;;;;;;;18.98;12.52;;;;;;;;;;4977473;28;21661;-65
2023/10/27 01:49:41;;;;;;;16.48;12.43;;;;;;;;;;4975806;28;21760;-65
2023/10/27 01:52:07;;;;;;;18.67;12.30;;;;;;;;;;4977585;28;20030;-67
2023/10/27 01:54:33;;;;;;;16.85;12.00;;;;;;;;;;4978927;28;20049;-64
2023/10/27 01:56:59;;;;;;;17.52;12.73;;;;;;;;;;4977267;28;20159;-65
2023/10/27 01:59:25;;;;;;;18.30;13.23;;;;;;;;;;4978224;28;20037;-64
2023/10/27 02:01:51;;;;;;;18.00;12.43;;;;;;;;;;4979507;28;20033;-65
2023/10/27 02:04:20;;;;;;;18.70;13.30;;;;;;;;;;4977383;28;20026;-65
2023/10/27 02:06:46;;;;;;;16.85;12.35;;;;;;;;;;4977985;28;20050;-65
2023/10/27 02:09:12;;;;;;;21.98;13.18;;;;;;;;;;4976505;28;20030;-65
2023/10/27 02:11:38;;;;;;;18.63;12.30;;;;;;;;;;4978200;28;20049;-65
2023/10/27 02:14:04;;;;;;;17.25;12.45;;;;;;;;;;4977894;28;20072;-65
2023/10/27 02:16:30;;;;;;;18.65;12.52;;;;;;;;;;4977859;28;20041;-65
2023/10/27 02:18:59;;;;;;;18.27;13.48;;;;;;;;;;4980697;28;20133;-64
2023/10/27 02:21:25;;;;;;;18.67;13.52;;;;;;;;;;4977739;28;20034;-65
2023/10/27 02:23:51;;;;;;;17.88;13.05;;;;;;;;;;4978259;28;20045;-64
2023/10/27 02:26:17;;;;;;;20.60;14.00;;;;;;;;;;4978003;28;20053;-65
2023/10/27 02:28:43;;;;;;;18.73;12.85;;;;;;;;;;4978060;28;20057;-64
2023/10/27 02:31:09;;;;;;;19.52;13.32;;;;;;;;;;4977816;28;20034;-65
2023/10/27 02:33:36;;;;;;;21.40;14.02;;;;;;;;;;4978773;28;20394;-65
2023/10/27 02:36:02;;;;;;;19.38;13.50;;;;;;;;;;4979973;28;20037;-65
2023/10/27 02:38:28;;;;;;;18.58;13.23;;;;;;;;;;4977454;28;20050;-65
2023/10/27 02:40:54;;;;;;;17.90;12.88;;;;;;;;;;4978325;28;20069;-65
2023/10/27 02:43:20;;;;;;;20.90;13.60;;;;;;;;;;4979208;28;20978;-65
2023/10/27 02:45:49;;;;;;;17.25;12.63;;;;;;;;;;4976706;28;20733;-65
2023/10/27 02:48:15;;;;;;;17.83;13.50;;;;;;;;;;4978222;28;20034;-65
2023/10/27 02:50:41;;;;;;;18.48;13.90;;;;;;;;;;4979534;28;20041;-65
2023/10/27 02:53:09;;;;;;;17.88;12.85;;;;;;;;;;4978065;28;20037;-65
2023/10/27 02:55:36;;;;;;;19.00;12.57;;;;;;;;;;4977889;28;20133;-65
2023/10/27 02:58:02;;;;;;;16.98;12.52;;;;;;;;;;4976962;28;20054;-65
2023/10/27 03:00:28;;;;;;;17.15;12.40;;;;;;;;;;4978240;28;20607;-65
2023/10/27 03:02:54;;;;;;;16.15;12.05;;;;;;;;;;4978000;28;20058;-65
2023/10/27 03:05:21;;;;;;;15.10;11.38;;;;;;;;;;4979991;28;20117;-64
2023/10/27 03:07:47;;;;;;;17.90;13.13;;;;;;;;;;4981237;28;20576;-65
2023/10/27 03:10:13;;;;;;;18.33;12.18;;;;;;;;;;4980152;28;20566;-64
2023/10/27 03:12:39;;;;;;;15.55;12.35;;;;;;;;;;4981270;28;20045;-64
2023/10/27 03:15:06;;;;;;;16.13;13.20;;;;;;;;;;4990505;28;20041;-64
2023/10/27 03:17:32;;;;;;;15.75;12.18;;;;;;;;;;4979533;28;20040;-64
2023/10/27 03:19:59;;;;;;;17.27;12.43;;;;;;;;;;4980830;28;20433;-65
2023/10/27 03:22:27;;;;;;;18.13;11.85;;;;;;;;;;4980931;28;20086;-64
2023/10/27 03:24:53;;;;;;;15.25;11.70;;;;;;;;;;4979957;28;20084;-65
2023/10/27 03:27:19;;;;;;;21.05;12.55;;;;;;;;;;4981573;28;20042;-65
2023/10/27 03:29:45;;;;;;;15.98;12.13;;;;;;;;;;4980931;28;20038;-64
2023/10/27 03:32:11;;;;;;;17.55;12.38;;;;;;;;;;4980054;28;20034;-65
2023/10/27 03:34:38;;;;;;;16.40;12.23;;;;;;;;;;4980554;28;20034;-65
2023/10/27 03:37:04;;;;;;;15.82;11.68;;;;;;;;;;4981794;28;20100;-65
2023/10/27 03:39:30;;;;;;;18.92;12.00;;;;;;;;;;4980737;28;20049;-65
2023/10/27 03:41:56;;;;;;;13.98;10.95;;;;;;;;;;4981671;28;20038;-65
2023/10/27 03:44:22;;;;;;;18.83;11.93;;;;;;;;;;4990820;28;20034;-64
2023/10/27 03:46:49;;;;;;;15.02;11.63;;;;;;;;;;4978458;28;20038;-65
2023/10/27 03:49:15;;;;;;;13.90;11.05;;;;;;;;;;4980927;28;20039;-64
2023/10/27 03:51:41;;;;;;;13.95;11.10;;;;;;;;;;4982022;28;20040;-65
2023/10/27 03:54:07;;;;;;;15.00;11.23;;;;;;;;;;4979657;28;20072;-65
2023/10/27 03:56:33;;;;;;;15.27;10.98;;;;;;;;;;4979073;28;20046;-65
2023/10/27 03:58:59;;;;;;;14.10;10.55;;;;;;;;;;4978352;28;20137;-65
2023/10/27 04:01:28;;;;;;;15.82;11.07;;;;;;;;;;4977242;28;20042;-65
2023/10/27 04:03:55;;;;;;;13.75;10.80;;;;;;;;;;4978151;28;20026;-64
2023/10/27 04:06:21;;;;;;;14.60;10.98;;;;;;;;;;4978973;28;21252;-64
2023/10/27 04:08:48;;;;;;;14.65;10.98;;;;;;;;;;4978260;28;20030;-64
2023/10/27 04:11:14;;;;;;;15.70;11.35;;;;;;;;;;4978054;28;21258;-64
2023/10/27 04:13:41;;;;;;;16.63;11.07;;;;;;;;;;4979868;28;20033;-64
2023/10/27 04:16:07;;;;;;;15.90;11.10;;;;;;;;;;4980896;28;20633;-64
2023/10/27 04:18:33;;;;;;;14.82;10.90;;;;;;;;;;4980979;28;20038;-64
2023/10/27 04:20:59;;;;;;;14.45;11.13;;;;;;;;;;4980328;28;20851;-64
2023/10/27 04:23:25;;;;;;;17.58;10.82;;;;;;;;;;4979508;28;20052;-65
2023/10/27 04:25:51;;;;;;;14.63;10.88;;;;;;;;;;4977899;28;20034;-64
2023/10/27 04:28:18;;;;;;;15.43;10.85;;;;;;;;;;4979132;28;20477;-64
2023/10/27 04:30:44;;;;;;;13.65;10.18;;;;;;;;;;4980748;28;20127;-64
2023/10/27 04:33:10;;;;;;;13.10;10.13;;;;;;;;;;4978289;28;20042;-64
2023/10/27 04:35:36;;;;;;;12.13;9.60;;;;;;;;;;4979257;28;20065;-64
2023/10/27 04:38:03;;;;;;;12.40;9.73;;;;;;;;;;4979976;28;20504;-64
2023/10/27 04:40:31;;;;;;;12.95;9.60;;;;;;;;;;4979339;28;20045;-64
2023/10/27 04:42:58;;;;;;;13.45;9.73;;;;;;;;;;4979288;28;20029;-64
2023/10/27 04:45:25;;;;;;;15.90;11.70;;;;;;;;;;4979983;28;20436;-65
2023/10/27 04:47:51;;;;;;;13.25;10.25;;;;;;;;;;4980389;28;20113;-64
2023/10/27 04:50:20;;;;;;;13.73;10.65;;;;;;;;;;4978664;28;20773;-64
2023/10/27 04:52:46;;;;;;;14.27;10.43;;;;;;;;;;4978678;28;20036;-64
2023/10/27 04:55:13;;;;;;;16.55;11.80;;;;;;;;;;4978739;28;20512;-64
2023/10/27 04:57:39;;;;;;;14.48;11.55;;;;;;;;;;4979560;28;21650;-65
2023/10/27 05:00:05;;;;;;;16.52;10.45;;;;;;;;;;4988778;28;20077;-65
2023/10/27 05:02:32;;;;;;;14.52;11.10;;;;;;;;;;4978578;28;20040;-64
2023/10/27 05:04:58;;;;;;;16.52;11.35;;;;;;;;;;4978237;28;20026;-64
2023/10/27 05:07:25;;;;;;;13.90;10.65;;;;;;;;;;4979704;28;20643;-64
2023/10/27 05:09:51;;;;;;;15.27;11.30;;;;;;;;;;4979819;28;20030;-64
2023/10/27 05:12:18;;;;;;;17.38;11.15;;;;;;;;;;4978582;28;20640;-65
2023/10/27 05:14:44;;;;;;;15.05;11.63;;;;;;;;;;4988989;28;21694;-64
2023/10/27 05:17:10;;;;;;;17.35;11.40;;;;;;;;;;4978868;28;20401;-64
2023/10/27 05:19:36;;;;;;;18.77;12.43;;;;;;;;;;4979179;28;20525;-64
2023/10/27 05:22:04;;;;;;;17.92;13.10;;;;;;;;;;4979485;28;20029;-64
2023/10/27 05:24:30;;;;;;;18.02;12.40;;;;;;;;;;4979889;28;20057;-64
2023/10/27 05:26:57;;;;;;;16.45;13.27;;;;;;;;;;4975858;28;20056;-64
2023/10/27 05:29:25;;;;;;;20.48;14.13;;;;;;;;;;4977747;28;20041;-64
2023/10/27 05:31:51;;;;;;;18.08;13.57;;;;;;;;;;4979213;28;20088;-65
2023/10/27 05:34:17;;;;;;;19.23;14.52;;;;;;;;;;4979518;28;20144;-64
2023/10/27 05:36:44;;;;;;;19.23;13.77;;;;;;;;;;4979809;28;20042;-65
2023/10/27 05:39:16;;;;;;;20.92;14.10;;;;;;;;;;4979480;28;21073;-64
2023/10/27 05:41:46;;;;;;;23.33;13.75;;;;;;;;;;4978667;28;20037;-64
2023/10/27 05:44:12;;;;;;;16.90;14.40;;;;;;;;;;4977943;28;20129;-64
2023/10/27 05:46:38;;;;;;;20.45;15.02;;;;;;;;;;4979470;28;20123;-64
2023/10/27 05:49:05;;;;;;;21.80;14.80;;;;;;;;;;4979296;28;20064;-64
2023/10/27 05:51:31;;;;;;;16.88;13.60;;;;;;;;;;4979977;28;20663;-64
2023/10/27 05:53:57;;;;;;;19.77;15.77;;;;;;;;;;4978317;28;20037;-64
2023/10/27 05:56:23;;;;;;;17.85;13.27;;;;;;;;;;4978733;28;20045;-65
2023/10/27 05:58:50;;;;;;;16.90;13.45;;;;;;;;;;4976102;28;20059;-65
2023/10/27 06:01:17;;;;;;;19.23;14.15;;;;;;;;;;4978867;28;20113;-65
2023/10/27 06:03:43;;;;;;;18.90;14.00;;;;;;;;;;4978283;28;20026;-65
2023/10/27 06:06:09;;;;;;;18.83;13.93;;;;;;;;;;4977917;28;20144;-65
2023/10/27 06:08:40;;;;;;;17.17;14.10;;;;;;;;;;4980028;28;20030;-65
2023/10/27 06:11:07;;;;;;;15.30;12.65;;;;;;;;;;4979699;28;20547;-65
2023/10/27 06:13:33;;;;;;;16.15;12.65;;;;;;;;;;4992256;28;20084;-65
2023/10/27 06:15:59;;;;;;;16.38;13.32;;;;;;;;;;4979626;28;20033;-65
2023/10/27 06:18:25;;;;;;;16.30;12.77;;;;;;;;;;4977122;28;20489;-65
2023/10/27 06:20:51;;;;;;;16.88;12.80;;;;;;;;;;4977470;28;20029;-65
2023/10/27 06:23:17;;;;;;;16.30;12.90;;;;;;;;;;4977772;28;20041;-65
2023/10/27 06:25:43;;;;;;;18.33;14.27;;;;;;;;;;4977467;28;20034;-65
2023/10/27 06:28:09;;;;;;;19.23;13.60;;;;;;;;;;4978250;28;20103;-65
2023/10/27 06:30:35;;;;;;;18.17;13.95;;;;;;;;;;4976335;28;21851;-65
2023/10/27 06:33:02;;;;;;;15.82;12.45;;;;;;;;;;4978822;28;20713;-65
2023/10/27 06:35:29;;;;;;;18.08;13.38;;;;;;;;;;4977278;28;20038;-65
2023/10/27 06:37:55;;;;;;;17.80;12.70;;;;;;;;;;4978462;28;21832;-65
2023/10/27 06:40:22;;;;;;;15.73;13.02;;;;;;;;;;4979624;28;20030;-65
2023/10/27 06:42:48;;;;;;;17.83;12.93;;;;;;;;;;4982481;28;20041;-65
2023/10/27 06:45:14;;;;;;;17.35;12.65;;;;;;;;;;4982037;28;20144;-65
2023/10/27 06:47:41;;;;;;;17.83;13.00;;;;;;;;;;4982347;28;20018;-65
2023/10/27 06:50:07;;;;;;;18.80;12.93;;;;;;;;;;4980674;28;20095;-65
2023/10/27 06:52:36;;;;;;;18.83;13.05;;;;;;;;;;4982074;28;20064;-65
2023/10/27 06:55:03;;;;;;;14.85;12.05;;;;;;;;;;4982822;28;20038;-65
2023/10/27 06:57:29;;;;;;;20.35;13.23;;;;;;;;;;4982629;28;20050;-65
2023/10/27 06:59:56;;;;;;;17.92;12.80;;;;;;;;;;4982100;28;21388;-65
2023/10/27 07:02:22;;;;;;;16.08;12.48;;;;;;;;;;4980572;28;20042;-65
2023/10/27 07:04:48;;;;;;;16.55;11.95;;;;;;;;;;4981094;28;20113;-65
2023/10/27 07:07:15;;;;;;;19.80;13.55;;;;;;;;;;4982882;28;20145;-65
2023/10/27 07:09:41;;;;;;;14.35;11.07;;;;;;;;;;4976619;28;20069;-65
2023/10/27 07:12:08;;;;;;;13.52;10.00;;;;;;;;;;4975568;28;20046;-65
2023/10/27 07:14:34;;;;;;;14.60;11.25;;;;;;;;;;4975352;28;20045;-65
2023/10/27 07:17:00;;;;;;;15.02;11.55;;;;;;;;;;4974088;28;20038;-65
2023/10/27 07:19:26;;;;;;;13.27;10.85;;;;;;;;;;4975395;28;20164;-65
2023/10/27 07:21:52;;;;;;;13.43;10.25;;;;;;;;;;4973662;28;20041;-66
2023/10/27 07:24:18;;;;;;;13.73;11.05;;;;;;;;;;4975224;28;20033;-65
2023/10/27 07:26:44;;;;;;;14.43;10.93;;;;;;;;;;4985878;28;20167;-65
2023/10/27 07:29:11;;;;;;;16.25;10.57;;;;;;;;;;4975177;28;20120;-66
2023/10/27 07:31:37;;;;;;;13.45;10.20;;;;;;;;;;4976000;28;20040;-65
2023/10/27 07:34:05;;;;;;;14.02;10.98;;;;;;;;;;4978129;28;20022;-66
2023/10/27 07:36:31;;;;;;;13.55;9.57;;;;;;;;;;4974854;28;20038;-66
2023/10/27 07:38:58;;;;;;;15.13;10.20;;;;;;;;;;4976756;28;20091;-65
2023/10/27 07:41:24;;;;;;;15.95;10.93;;;;;;;;;;4976895;28;20022;-65
2023/10/27 07:43:50;;;;;;;14.65;10.15;;;;;;;;;;4975839;28;20037;-65
2023/10/27 07:46:16;;;;;;;14.25;10.55;;;;;;;;;;4975306;28;20034;-68
2023/10/27 07:48:42;;;;;;;13.77;10.52;;;;;;;;;;4976840;28;20044;-68
2023/10/27 07:51:08;;;;;;;14.02;10.13;;;;;;;;;;4975240;28;20073;-68
2023/10/27 07:53:34;;;;;;;12.70;9.85;;;;;;;;;;4976694;28;21062;-67
2023/10/27 07:56:00;;;;;;;13.77;10.45;;;;;;;;;;4976194;28;20121;-68
2023/10/27 07:58:27;;;;;;;14.70;9.90;;;;;;;;;;4975827;28;20133;-68
2023/10/27 08:00:53;;;;;;;14.10;9.68;;;;;;;;;;4985627;28;20448;-68
2023/10/27 08:03:21;;;;;;;14.00;10.55;;;;;;;;;;4976910;28;20152;-68
2023/10/27 08:05:48;;;;;;;13.45;10.23;;;;;;;;;;4975605;28;20026;-68
2023/10/27 08:08:14;;;;;;;12.70;9.15;;;;;;;;;;4976139;28;20053;-69
2023/10/27 08:10:40;;;;;;;13.82;8.80;;;;;;;;;;4975307;28;20087;-68
2023/10/27 08:13:06;;;;;;;12.95;9.65;;;;;;;;;;4986083;28;21657;-68
2023/10/27 08:15:36;;;;;;;12.00;9.13;;;;;;;;;;4975493;28;20038;-69
2023/10/27 08:18:03;;;;;;;12.40;9.10;;;;;;;;;;4975756;28;20034;-69
2023/10/27 08:20:33;;;;;;;12.32;9.18;;;;;;;;;;4976216;28;20046;-66
2023/10/27 08:22:59;;;;;;;12.30;9.30;;;;;;;;;;4975341;28;20038;-65
2023/10/27 08:25:25;;;;;;;14.15;10.60;;;;;;;;;;4986870;28;20022;-65
2023/10/27 08:27:51;;;;;;;13.70;9.93;;;;;;;;;;4979179;28;20041;-66
2023/10/27 08:30:18;;;;;;;12.05;9.43;;;;;;;;;;4980615;28;20039;-66
2023/10/27 08:32:44;;;;;;;11.63;9.32;;;;;;;;;;4980581;28;20025;-66
2023/10/27 08:35:10;;;;;;;14.00;10.25;;;;;;;;;;4980484;28;20524;-69
2023/10/27 08:37:36;;;;;;;13.98;9.70;;;;;;;;;;4982462;28;20109;-69
2023/10/27 08:40:05;;;;;;;13.20;9.75;;;;;;;;;;4977891;28;20037;-69
2023/10/27 08:42:34;;;;;;;12.35;9.68;;;;;;;;;;4976412;28;20148;-69
2023/10/27 08:45:00;;;;;;;12.75;9.10;;;;;;;;;;4976019;28;20500;-69
2023/10/27 08:47:30;;;;;;;12.23;8.88;;;;;;;;;;4978945;28;20052;-69
2023/10/27 08:49:59;;;;;;;12.40;9.52;;;;;;;;;;4977786;28;20049;-69
2023/10/27 08:52:26;;;;;;;12.93;9.88;;;;;;;;;;4976919;28;20034;-68
2023/10/27 08:54:52;;;;;;;14.80;10.60;;;;;;;;;;4979255;28;20022;-69
2023/10/27 08:57:18;;;;;;;13.43;9.38;;;;;;;;;;4979116;28;20107;-68
2023/10/27 08:59:44;;;;;;;12.32;9.02;;;;;;;;;;4978970;28;20045;-69
2023/10/27 09:02:10;;;;;;;11.35;9.15;;;;;;;;;;4979604;28;20061;-69
2023/10/27 09:04:43;;;;;;;12.95;9.85;;;;;;;;;;4976423;28;20061;-69
2023/10/27 09:07:09;;;;;;;12.07;9.13;;;;;;;;;;4978183;28;20030;-69
2023/10/27 09:09:35;;;;;;;12.68;8.57;;;;;;;;;;4976912;28;20044;-70
2023/10/27 09:12:02;;;;;;;11.48;8.45;;;;;;;;;;4979551;28;20037;-72
2023/10/27 09:14:32;;;;;;;12.18;9.07;;;;;;;;;;4977991;28;21379;-70
2023/10/27 09:17:08;;;;;;;11.85;9.20;;;;;;;;;;4981376;28;20030;-71
2023/10/27 09:19:34;;;;;;;12.82;8.52;;;;;;;;;;4976135;28;20031;-70
2023/10/27 09:22:05;;;;;;;10.93;8.35;;;;;;;;;;4996796;28;20026;-70
2023/10/27 09:24:31;;;;;;;10.63;7.95;;;;;;;;;;4977239;28;20026;-71
2023/10/27 09:27:00;;;;;;;10.25;8.35;;;;;;;;;;4979557;28;20033;-71
2023/10/27 09:29:27;;;;;;;11.98;8.65;;;;;;;;;;4978972;28;20021;-70
2023/10/27 09:31:53;;;;;;;11.32;8.65;;;;;;;;;;4979319;28;20112;-71
2023/10/27 09:34:21;;;;;;;11.20;8.25;;;;;;;;;;4978610;28;20049;-70
2023/10/27 09:36:54;;;;;;;11.55;7.70;;;;;;;;;;4978573;28;20418;-71
2023/10/27 09:39:22;;;;;;;10.90;7.15;;;;;;;;;;4979554;28;20091;-71
2023/10/27 09:42:04;;;;;;;12.95;8.55;;;;;;;;;;4978566;28;20026;-71
2023/10/27 09:44:41;;;;;;;10.95;7.82;;;;;;;;;;4978749;28;20081;-71
2023/10/27 09:47:11;;;;;;;9.93;7.53;;;;;;;;;;4977382;28;21141;-71
2023/10/27 09:49:37;;;;;;;9.23;6.85;;;;;;;;;;4980182;28;20779;-71
2023/10/27 09:52:07;;;;;;;9.20;7.25;;;;;;;;;;4988437;28;20156;-71
2023/10/27 09:54:33;;;;;;;9.18;6.57;;;;;;;;;;4977075;28;20033;-71
2023/10/27 09:57:00;;;;;;;9.50;7.40;;;;;;;;;;4979921;28;20042;-71
2023/10/27 09:59:27;;;;;;;8.70;6.60;;;;;;;;;;4978891;28;20050;-72
2023/10/27 10:01:55;;;;;;;10.82;7.13;;;;;;;;;;4978474;28;20592;-70
2023/10/27 10:05:00;;;;;;;9.18;6.85;;;;;;;;;;4980151;28;20133;-70
2023/10/27 10:07:29;;;;;;;8.52;6.35;;;;;;;;;;5002766;28;20035;-70
2023/10/27 10:09:55;;;;;;;9.65;7.18;;;;;;;;;;5003052;28;21152;-71
2023/10/27 10:12:21;;;;;;;10.45;6.90;;;;;;;;;;4990216;28;20065;-72
2023/10/27 10:14:48;;;;;;;9.25;6.88;;;;;;;;;;4992211;28;20676;-70
2023/10/27 10:17:33;;;;;;;9.38;6.45;;;;;;;;;;4988218;28;20647;-71
2023/10/27 10:19:59;;;;;;;9.23;6.50;;;;;;;;;;4997234;28;20120;-70
2023/10/27 10:22:38;;;;;;;9.20;6.20;;;;;;;;;;4983045;28;20026;-70
2023/10/27 10:25:16;;;;;;;9.52;6.60;;;;;;;;;;4981733;28;20512;-71
2023/10/27 10:28:01;;;;;;;8.32;6.32;;;;;;;;;;4983676;28;20030;-70
2023/10/27 10:30:27;;;;;;;12.38;6.72;;;;;;;;;;4993866;28;20108;-70
2023/10/27 10:33:14;;;;;;;9.85;6.88;;;;;;;;;;4984399;28;20041;-70
2023/10/27 10:35:40;;;;;;;8.55;5.97;;;;;;;;;;5002131;28;20026;-70
2023/10/27 10:38:24;;;;;;;11.18;7.40;;;;;;;;;;4980840;28;20030;-70
2023/10/27 10:40:51;;;;;;;8.63;6.20;;;;;;;;;;4982065;28;20639;-70
2023/10/27 10:43:26;;;;;;;10.65;7.97;;;;;;;;;;4983334;28;20034;-69
2023/10/27 10:46:12;;;;;;;10.15;7.70;;;;;;;;;;4984321;28;20386;-70
2023/10/27 10:48:42;;;;;;;11.20;7.65;;;;;;;;;;4981164;28;20077;-70
2023/10/27 10:51:15;;;;;;;11.00;7.85;;;;;;;;;;4982758;28;20069;-70
2023/10/27 10:53:42;;;;;;;10.75;7.90;;;;;;;;;;4981669;28;20172;-69
2023/10/27 10:56:10;;;;;;;10.50;7.88;;;;;;;;;;4982439;28;20031;-69
2023/10/27 10:58:37;;;;;;;12.32;8.55;;;;;;;;;;4979904;28;20049;-70
2023/10/27 11:01:04;;;;;;;10.40;7.38;;;;;;;;;;4983372;28;20823;-70
2023/10/27 11:03:34;;;;;;;11.73;8.63;;;;;;;;;;4981808;28;20064;-70
2023/10/27 11:06:05;;;;;;;13.35;9.23;;;;;;;;;;4981679;28;20175;-70
2023/10/27 11:08:37;;;;;;;11.98;9.35;;;;;;;;;;4982762;28;20031;-70
2023/10/27 11:11:03;;;;;;;12.73;9.13;;;;;;;;;;4980481;28;20045;-70
2023/10/27 11:13:33;;;;;;;13.20;9.75;;;;;;;;;;4982700;28;20038;-70
2023/10/27 11:16:00;;;;;;;13.27;9.65;;;;;;;;;;4982640;28;20037;-70
2023/10/27 11:18:32;;;;;;;12.02;8.65;;;;;;;;;;4983696;28;20065;-69
2023/10/27 11:20:59;;;;;;;15.55;9.45;;;;;;;;;;4979575;28;20503;-69
2023/10/27 11:23:28;;;;;;;11.35;8.43;;;;;;;;;;4983549;28;20041;-69
2023/10/27 11:26:01;;;;;;;12.45;8.85;;;;;;;;;;4978030;28;20040;-70
2023/10/27 11:28:28;;;;;;;10.73;7.90;;;;;;;;;;4982404;28;20034;-69
2023/10/27 11:31:08;;;;;;;11.85;8.63;;;;;;;;;;4996369;28;20148;-69
2023/10/27 11:33:54;;;;;;;11.85;8.52;;;;;;;;;;4981056;28;20037;-69
2023/10/27 11:36:21;;;;;;;15.30;9.27;;;;;;;;;;4982094;28;20141;-69
2023/10/27 11:38:47;;;;;;;13.07;9.60;;;;;;;;;;4981337;28;20135;-69
2023/10/27 11:41:13;;;;;;;13.27;9.35;;;;;;;;;;4981964;28;20049;-70
2023/10/27 11:43:40;;;;;;;13.73;9.90;;;;;;;;;;4980928;28;20440;-69
2023/10/27 11:46:25;;;;;;;13.35;9.52;;;;;;;;;;4981252;28;21810;-69
2023/10/27 11:48:51;;;;;;;14.98;10.00;;;;;;;;;;4981706;28;20630;-70
2023/10/27 11:51:17;;;;;;;14.93;10.95;;;;;;;;;;4982884;28;20681;-70
2023/10/27 11:53:43;;;;;;;15.93;11.27;;;;;;;;;;4981127;28;20039;-69
2023/10/27 11:56:10;;;;;;;13.32;9.90;;;;;;;;;;4983454;28;20042;-71
2023/10/27 11:58:36;;;;;;;16.38;11.65;;;;;;;;;;4982118;28;20065;-70
2023/10/27 12:01:02;;;;;;;14.85;10.90;;;;;;;;;;4981292;28;20386;-69
2023/10/27 12:03:28;;;;;;;13.90;10.13;;;;;;;;;;4981642;28;20109;-70
2023/10/27 12:05:54;;;;;;;16.85;12.15;;;;;;;;;;4980647;28;20030;-70
2023/10/27 12:08:21;;;;;;;15.20;11.75;;;;;;;;;;4981662;28;20034;-70
2023/10/27 12:10:56;;;;;;;15.82;10.18;;;;;;;;;;4979540;28;21569;-70
2023/10/27 12:13:23;;;;;;;15.73;11.75;;;;;;;;;;4979882;28;20096;-70
2023/10/27 12:15:49;;;;;;;15.05;10.80;;;;;;;;;;4980629;28;20041;-70
2023/10/27 12:18:16;;;;;;;16.58;11.23;;;;;;;;;;4980047;28;20026;-70
2023/10/27 12:20:42;;;;;;;15.13;10.73;;;;;;;;;;4979540;28;20152;-70
2023/10/27 12:23:09;;;;;;;15.52;11.02;;;;;;;;;;4980718;28;20030;-71
2023/10/27 12:25:35;;;;;;;16.55;11.63;;;;;;;;;;4980874;28;20021;-70
2023/10/27 12:28:02;;;;;;;17.55;12.48;;;;;;;;;;4979479;28;20068;-70
2023/10/27 12:30:30;;;;;;;16.27;11.07;;;;;;;;;;4983489;28;20061;-70
2023/10/27 12:32:56;;;;;;;15.77;11.57;;;;;;;;;;4979856;28;20034;-70
2023/10/27 12:35:22;;;;;;;17.77;12.85;;;;;;;;;;4980664;28;20429;-70
2023/10/27 12:37:55;;;;;;;19.25;12.50;;;;;;;;;;4977214;28;20625;-70
2023/10/27 12:40:22;;;;;;;18.38;12.65;;;;;;;;;;4982967;28;20021;-70
2023/10/27 12:42:49;;;;;;;17.85;12.35;;;;;;;;;;4980364;28;20061;-70
2023/10/27 12:45:15;;;;;;;16.90;11.82;;;;;;;;;;4981506;28;20030;-70
2023/10/27 12:47:42;;;;;;;17.42;11.98;;;;;;;;;;4981431;28;21726;-70
2023/10/27 12:50:10;;;;;;;16.10;11.93;;;;;;;;;;4981326;28;20039;-70
2023/10/27 12:52:37;;;;;;;16.42;11.77;;;;;;;;;;4991565;28;20034;-70
2023/10/27 12:55:04;;;;;;;18.27;12.18;;;;;;;;;;4980323;28;20071;-70
2023/10/27 12:57:30;;;;;;;16.27;11.73;;;;;;;;;;4980216;28;20058;-71
2023/10/27 12:59:56;;;;;;;14.88;10.70;;;;;;;;;;4979212;28;20151;-69
2023/10/27 13:02:23;;;;;;;15.05;10.80;;;;;;;;;;4981625;28;20034;-70
2023/10/27 13:04:52;;;;;;;15.50;10.60;;;;;;;;;;4999110;28;20029;-70
2023/10/27 13:07:19;;;;;;;16.98;10.73;;;;;;;;;;4979533;28;20036;-70
2023/10/27 13:09:45;;;;;;;14.68;10.93;;;;;;;;;;4981295;28;21771;-70
2023/10/27 13:12:11;;;;;;;15.02;10.95;;;;;;;;;;4979162;28;20044;-70
2023/10/27 13:14:41;;;;;;;15.30;10.85;;;;;;;;;;4982684;28;20475;-70
2023/10/27 13:17:09;;;;;;;15.60;10.82;;;;;;;;;;4990612;28;20475;-70
2023/10/27 13:19:35;;;;;;;14.70;11.32;;;;;;;;;;4983395;28;20065;-70
2023/10/27 13:22:01;;;;;;;13.90;10.57;;;;;;;;;;4981495;28;20819;-70
2023/10/27 13:24:27;;;;;;;16.42;11.52;;;;;;;;;;4979869;28;20065;-70
2023/10/27 13:26:55;;;;;;;15.50;10.93;;;;;;;;;;4980660;28;20018;-70
2023/10/27 13:29:21;;;;;;;15.07;10.70;;;;;;;;;;4979045;28;20409;-71
2023/10/27 13:31:47;;;;;;;15.70;10.77;;;;;;;;;;4981285;28;20076;-70
2023/10/27 13:34:17;;;;;;;15.18;11.35;;;;;;;;;;4980277;28;20085;-70
2023/10/27 13:36:44;;;;;;;17.13;12.35;;;;;;;;;;4980955;28;20034;-70
2023/10/27 13:39:10;;;;;;;15.82;11.15;;;;;;;;;;4980658;28;20042;-69
2023/10/27 13:41:36;;;;;;;18.52;12.02;;;;;;;;;;4978241;28;20081;-69
2023/10/27 13:44:05;;;;;;;13.60;10.38;;;;;;;;;;4979394;28;20057;-70
2023/10/27 13:46:35;;;;;;;14.80;11.25;;;;;;;;;;4976241;28;20596;-70
2023/10/27 13:49:09;;;;;;;14.90;11.05;;;;;;;;;;4978302;28;20031;-70
2023/10/27 13:51:36;;;;;;;15.63;11.88;;;;;;;;;;4978135;28;20575;-70
2023/10/27 13:54:02;;;;;;;15.20;10.98;;;;;;;;;;4978575;28;20038;-70
2023/10/27 13:56:28;;;;;;;16.33;11.40;;;;;;;;;;4980298;28;20041;-70
2023/10/27 13:58:54;;;;;;;15.82;12.15;;;;;;;;;;4978445;28;20459;-70
2023/10/27 14:01:22;;;;;;;15.27;11.73;;;;;;;;;;4980938;28;20085;-70
2023/10/27 14:03:49;;;;;;;14.95;10.70;;;;;;;;;;4979313;28;20414;-70
2023/10/27 14:06:16;;;;;;;15.65;10.60;;;;;;;;;;4981551;28;21177;-69
2023/10/27 14:08:43;;;;;;;14.52;11.45;;;;;;;;;;4981275;28;20039;-69
2023/10/27 14:11:09;;;;;;;16.25;11.32;;;;;;;;;;4978931;28;20026;-70
2023/10/27 14:13:35;;;;;;;15.30;10.60;;;;;;;;;;4981147;28;20038;-70
2023/10/27 14:16:01;;;;;;;16.60;11.77;;;;;;;;;;4977434;28;20127;-69
2023/10/27 14:18:27;;;;;;;15.18;11.15;;;;;;;;;;4981180;28;20054;-70
2023/10/27 14:20:54;;;;;;;14.15;10.75;;;;;;;;;;4978635;28;20042;-69
2023/10/27 14:23:20;;;;;;;13.88;10.52;;;;;;;;;;4981274;28;21720;-70